sensor_id;sensor_type;location;lat;lon;timestamp;temperature;humidity
17619;DHT22;8928;51.678;6.074;2023-04-24T00:02:08;9.30;99.90
17619;DHT22;8928;51.678;6.074;2023-04-24T00:04:56;9.30;99.90
17619;DHT22;8928;51.678;6.074;2023-04-24T00:07:48;9.30;99.90
17619;DHT22;8928;51.678;6.074;2023-04-24T00:10:38;9.30;99.90
17619;DHT22;8928;51.678;6.074;2023-04-24T00:13:25;9.30;99.90
17619;DHT22;8928;51.678;6.074;2023-04-24T00:16:14;9.40;99.90
17619;DHT22;8928;51.678;6.074;2023-04-24T00:19:02;9.40;99.90
17619;DHT22;8928;51.678;6.074;2023-04-24T00:21:51;9.40;99.90
17619;DHT22;8928;51.678;6.074;2023-04-24T00:24:38;9.40;99.90
17619;DHT22;8928;51.678;6.074;2023-04-24T00:27:25;9.50;99.90
17619;DHT22;8928;51.678;6.074;2023-04-24T00:30:13;9.50;99.90
17619;DHT22;8928;51.678;6.074;2023-04-24T00:33:00;9.50;99.90
17619;DHT22;8928;51.678;6.074;2023-04-24T00:35:48;9.50;99.90
17619;DHT22;8928;51.678;6.074;2023-04-24T00:38:35;9.50;99.90
17619;DHT22;8928;51.678;6.074;2023-04-24T00:41:23;9.50;99.90
17619;DHT22;8928;51.678;6.074;2023-04-24T00:44:11;9.50;99.90
17619;DHT22;8928;51.678;6.074;2023-04-24T00:46:59;9.50;99.90
17619;DHT22;8928;51.678;6.074;2023-04-24T00:49:46;9.50;99.90
17619;DHT22;8928;51.678;6.074;2023-04-24T00:52:34;9.50;99.90
17619;DHT22;8928;51.678;6.074;2023-04-24T00:55:21;9.60;99.90
17619;DHT22;8928;51.678;6.074;2023-04-24T00:58:09;9.50;99.90
17619;DHT22;8928;51.678;6.074;2023-04-24T01:00:56;9.60;99.90
17619;DHT22;8928;51.678;6.074;2023-04-24T01:03:43;9.60;99.90
17619;DHT22;8928;51.678;6.074;2023-04-24T01:06:31;9.50;99.90
17619;DHT22;8928;51.678;6.074;2023-04-24T01:09:21;9.50;99.90
17619;DHT22;8928;51.678;6.074;2023-04-24T01:12:08;9.50;99.90
17619;DHT22;8928;51.678;6.074;2023-04-24T01:14:56;9.50;99.90
17619;DHT22;8928;51.678;6.074;2023-04-24T01:17:43;9.40;99.90
17619;DHT22;8928;51.678;6.074;2023-04-24T01:20:31;9.40;99.90
17619;DHT22;8928;51.678;6.074;2023-04-24T01:23:20;9.40;99.90
17619;DHT22;8928;51.678;6.074;2023-04-24T01:26:07;9.40;99.90
17619;DHT22;8928;51.678;6.074;2023-04-24T01:28:54;9.30;99.90
17619;DHT22;8928;51.678;6.074;2023-04-24T01:31:41;9.30;99.90
17619;DHT22;8928;51.678;6.074;2023-04-24T01:34:29;9.20;99.90
17619;DHT22;8928;51.678;6.074;2023-04-24T01:37:16;9.20;99.90
17619;DHT22;8928;51.678;6.074;2023-04-24T01:40:06;9.20;99.90
17619;DHT22;8928;51.678;6.074;2023-04-24T01:42:54;9.20;99.90
17619;DHT22;8928;51.678;6.074;2023-04-24T01:45:41;9.10;99.90
17619;DHT22;8928;51.678;6.074;2023-04-24T01:48:28;9.20;99.90
17619;DHT22;8928;51.678;6.074;2023-04-24T01:51:16;9.10;99.90
17619;DHT22;8928;51.678;6.074;2023-04-24T01:54:03;9.20;99.90
17619;DHT22;8928;51.678;6.074;2023-04-24T01:56:52;9.10;99.90
17619;DHT22;8928;51.678;6.074;2023-04-24T01:59:39;9.10;99.90
17619;DHT22;8928;51.678;6.074;2023-04-24T02:02:26;9.10;99.90
17619;DHT22;8928;51.678;6.074;2023-04-24T02:05:14;9.10;99.90
17619;DHT22;8928;51.678;6.074;2023-04-24T02:08:01;9.10;99.90
17619;DHT22;8928;51.678;6.074;2023-04-24T02:10:48;9.10;99.90
17619;DHT22;8928;51.678;6.074;2023-04-24T02:13:36;9.10;99.90
17619;DHT22;8928;51.678;6.074;2023-04-24T02:16:23;9.10;99.90
17619;DHT22;8928;51.678;6.074;2023-04-24T02:19:11;9.00;99.90
17619;DHT22;8928;51.678;6.074;2023-04-24T02:21:58;9.00;99.90
17619;DHT22;8928;51.678;6.074;2023-04-24T02:24:45;8.90;99.90
17619;DHT22;8928;51.678;6.074;2023-04-24T02:27:32;8.90;99.90
17619;DHT22;8928;51.678;6.074;2023-04-24T02:30:20;8.90;99.90
17619;DHT22;8928;51.678;6.074;2023-04-24T02:33:07;8.90;99.90
17619;DHT22;8928;51.678;6.074;2023-04-24T02:35:54;8.90;99.90
17619;DHT22;8928;51.678;6.074;2023-04-24T02:38:41;8.90;99.90
17619;DHT22;8928;51.678;6.074;2023-04-24T02:41:28;8.90;99.90
17619;DHT22;8928;51.678;6.074;2023-04-24T02:44:17;8.90;99.90
17619;DHT22;8928;51.678;6.074;2023-04-24T02:47:06;8.90;99.90
17619;DHT22;8928;51.678;6.074;2023-04-24T02:49:53;8.90;99.90
17619;DHT22;8928;51.678;6.074;2023-04-24T02:52:40;8.80;99.90
17619;DHT22;8928;51.678;6.074;2023-04-24T02:55:27;8.90;99.90
17619;DHT22;8928;51.678;6.074;2023-04-24T02:58:14;8.80;99.90
17619;DHT22;8928;51.678;6.074;2023-04-24T03:01:01;8.80;99.90
17619;DHT22;8928;51.678;6.074;2023-04-24T03:03:49;8.80;99.90
17619;DHT22;8928;51.678;6.074;2023-04-24T03:06:36;8.80;99.90
17619;DHT22;8928;51.678;6.074;2023-04-24T03:09:24;8.80;99.90
17619;DHT22;8928;51.678;6.074;2023-04-24T03:12:11;8.80;99.90
17619;DHT22;8928;51.678;6.074;2023-04-24T03:14:58;8.70;99.90
17619;DHT22;8928;51.678;6.074;2023-04-24T03:17:46;8.70;99.90
17619;DHT22;8928;51.678;6.074;2023-04-24T03:20:34;8.70;99.90
17619;DHT22;8928;51.678;6.074;2023-04-24T03:23:22;8.70;99.90
17619;DHT22;8928;51.678;6.074;2023-04-24T03:26:09;8.60;99.90
17619;DHT22;8928;51.678;6.074;2023-04-24T03:28:56;8.70;99.90
17619;DHT22;8928;51.678;6.074;2023-04-24T03:31:43;8.60;99.90
17619;DHT22;8928;51.678;6.074;2023-04-24T03:34:30;8.60;99.90
17619;DHT22;8928;51.678;6.074;2023-04-24T03:37:19;8.60;99.90
17619;DHT22;8928;51.678;6.074;2023-04-24T03:40:07;8.60;99.90
17619;DHT22;8928;51.678;6.074;2023-04-24T03:42:54;8.50;99.90
17619;DHT22;8928;51.678;6.074;2023-04-24T03:45:41;8.60;99.90
17619;DHT22;8928;51.678;6.074;2023-04-24T03:48:29;8.60;99.90
17619;DHT22;8928;51.678;6.074;2023-04-24T03:51:16;8.60;99.90
17619;DHT22;8928;51.678;6.074;2023-04-24T03:54:04;8.60;99.90
17619;DHT22;8928;51.678;6.074;2023-04-24T03:56:51;8.60;99.90
17619;DHT22;8928;51.678;6.074;2023-04-24T03:59:38;8.60;99.90
17619;DHT22;8928;51.678;6.074;2023-04-24T04:02:25;8.60;99.90
17619;DHT22;8928;51.678;6.074;2023-04-24T04:05:12;8.60;99.90
17619;DHT22;8928;51.678;6.074;2023-04-24T04:07:59;8.60;99.90
17619;DHT22;8928;51.678;6.074;2023-04-24T04:10:48;8.60;99.90
17619;DHT22;8928;51.678;6.074;2023-04-24T04:13:35;8.60;99.90
17619;DHT22;8928;51.678;6.074;2023-04-24T04:16:22;8.60;99.90
17619;DHT22;8928;51.678;6.074;2023-04-24T04:19:09;8.60;99.90
17619;DHT22;8928;51.678;6.074;2023-04-24T04:21:56;8.60;99.90
17619;DHT22;8928;51.678;6.074;2023-04-24T04:24:43;8.60;99.90
17619;DHT22;8928;51.678;6.074;2023-04-24T04:27:31;8.50;99.90
17619;DHT22;8928;51.678;6.074;2023-04-24T04:30:19;8.50;99.90
17619;DHT22;8928;51.678;6.074;2023-04-24T04:33:06;8.50;99.90
17619;DHT22;8928;51.678;6.074;2023-04-24T04:35:53;8.50;99.90
17619;DHT22;8928;51.678;6.074;2023-04-24T04:38:42;8.50;99.90
17619;DHT22;8928;51.678;6.074;2023-04-24T04:41:30;8.50;99.90
17619;DHT22;8928;51.678;6.074;2023-04-24T04:44:19;8.50;99.90
17619;DHT22;8928;51.678;6.074;2023-04-24T04:47:06;8.50;99.90
17619;DHT22;8928;51.678;6.074;2023-04-24T04:49:54;8.50;99.90
17619;DHT22;8928;51.678;6.074;2023-04-24T04:52:41;8.50;99.90
17619;DHT22;8928;51.678;6.074;2023-04-24T04:55:28;8.50;99.90
17619;DHT22;8928;51.678;6.074;2023-04-24T04:58:16;8.50;99.90
17619;DHT22;8928;51.678;6.074;2023-04-24T05:01:04;8.50;99.90
17619;DHT22;8928;51.678;6.074;2023-04-24T05:03:52;8.40;99.90
17619;DHT22;8928;51.678;6.074;2023-04-24T05:06:39;8.50;99.90
17619;DHT22;8928;51.678;6.074;2023-04-24T05:09:26;8.50;99.90
17619;DHT22;8928;51.678;6.074;2023-04-24T05:12:15;8.50;99.90
17619;DHT22;8928;51.678;6.074;2023-04-24T05:15:02;8.50;99.90
17619;DHT22;8928;51.678;6.074;2023-04-24T05:17:50;8.50;99.90
17619;DHT22;8928;51.678;6.074;2023-04-24T05:20:37;8.50;99.90
17619;DHT22;8928;51.678;6.074;2023-04-24T05:23:25;8.60;99.90
17619;DHT22;8928;51.678;6.074;2023-04-24T05:26:13;8.60;99.90
17619;DHT22;8928;51.678;6.074;2023-04-24T05:29:00;8.60;99.90
17619;DHT22;8928;51.678;6.074;2023-04-24T05:31:47;8.60;99.90
17619;DHT22;8928;51.678;6.074;2023-04-24T05:34:35;8.60;99.90
17619;DHT22;8928;51.678;6.074;2023-04-24T05:37:22;8.60;99.90
17619;DHT22;8928;51.678;6.074;2023-04-24T05:40:10;8.60;99.90
17619;DHT22;8928;51.678;6.074;2023-04-24T05:42:57;8.60;99.90
17619;DHT22;8928;51.678;6.074;2023-04-24T05:45:44;8.60;99.90
17619;DHT22;8928;51.678;6.074;2023-04-24T05:48:31;8.50;99.90
17619;DHT22;8928;51.678;6.074;2023-04-24T05:51:20;8.50;99.90
17619;DHT22;8928;51.678;6.074;2023-04-24T05:54:07;8.50;99.90
17619;DHT22;8928;51.678;6.074;2023-04-24T05:56:54;8.50;99.90
17619;DHT22;8928;51.678;6.074;2023-04-24T05:59:41;8.50;99.90
17619;DHT22;8928;51.678;6.074;2023-04-24T06:02:28;8.60;99.90
17619;DHT22;8928;51.678;6.074;2023-04-24T06:05:18;8.50;99.90
17619;DHT22;8928;51.678;6.074;2023-04-24T06:10:34;8.60;99.90
17619;DHT22;8928;51.678;6.074;2023-04-24T06:13:21;8.60;99.90
17619;DHT22;8928;51.678;6.074;2023-04-24T06:16:08;8.70;99.90
17619;DHT22;8928;51.678;6.074;2023-04-24T06:18:55;8.80;99.90
17619;DHT22;8928;51.678;6.074;2023-04-24T06:21:43;8.80;99.90
17619;DHT22;8928;51.678;6.074;2023-04-24T06:24:30;8.80;99.90
17619;DHT22;8928;51.678;6.074;2023-04-24T06:27:18;8.80;99.90
17619;DHT22;8928;51.678;6.074;2023-04-24T06:30:06;8.80;99.90
17619;DHT22;8928;51.678;6.074;2023-04-24T06:32:54;8.80;99.90
17619;DHT22;8928;51.678;6.074;2023-04-24T06:35:41;8.80;99.90
17619;DHT22;8928;51.678;6.074;2023-04-24T06:38:28;8.70;99.90
17619;DHT22;8928;51.678;6.074;2023-04-24T06:41:16;8.70;99.90
17619;DHT22;8928;51.678;6.074;2023-04-24T06:44:04;8.60;99.90
17619;DHT22;8928;51.678;6.074;2023-04-24T06:46:51;8.70;99.90
17619;DHT22;8928;51.678;6.074;2023-04-24T06:49:40;8.70;99.90
17619;DHT22;8928;51.678;6.074;2023-04-24T06:52:27;8.70;99.90
17619;DHT22;8928;51.678;6.074;2023-04-24T06:55:14;8.70;99.90
17619;DHT22;8928;51.678;6.074;2023-04-24T06:58:02;8.70;99.90
17619;DHT22;8928;51.678;6.074;2023-04-24T07:00:53;8.60;99.90
17619;DHT22;8928;51.678;6.074;2023-04-24T07:03:40;8.50;99.90
17619;DHT22;8928;51.678;6.074;2023-04-24T07:06:27;8.40;99.90
17619;DHT22;8928;51.678;6.074;2023-04-24T07:09:17;8.40;99.90
17619;DHT22;8928;51.678;6.074;2023-04-24T07:12:04;8.40;99.90
17619;DHT22;8928;51.678;6.074;2023-04-24T07:14:52;8.40;99.90
17619;DHT22;8928;51.678;6.074;2023-04-24T07:17:40;8.40;99.90
17619;DHT22;8928;51.678;6.074;2023-04-24T07:20:29;8.40;99.90
17619;DHT22;8928;51.678;6.074;2023-04-24T07:23:17;8.30;99.90
17619;DHT22;8928;51.678;6.074;2023-04-24T07:26:04;8.40;99.90
17619;DHT22;8928;51.678;6.074;2023-04-24T07:28:51;8.50;99.90
17619;DHT22;8928;51.678;6.074;2023-04-24T07:31:38;8.60;99.90
17619;DHT22;8928;51.678;6.074;2023-04-24T07:34:28;8.80;99.90
17619;DHT22;8928;51.678;6.074;2023-04-24T07:37:15;8.80;99.90
17619;DHT22;8928;51.678;6.074;2023-04-24T07:40:02;8.80;99.90
17619;DHT22;8928;51.678;6.074;2023-04-24T07:42:49;8.70;99.90
17619;DHT22;8928;51.678;6.074;2023-04-24T07:45:36;8.70;99.90
17619;DHT22;8928;51.678;6.074;2023-04-24T07:48:25;8.50;99.90
17619;DHT22;8928;51.678;6.074;2023-04-24T07:51:14;8.50;99.90
17619;DHT22;8928;51.678;6.074;2023-04-24T07:54:01;8.50;99.90
17619;DHT22;8928;51.678;6.074;2023-04-24T07:56:48;8.50;99.90
17619;DHT22;8928;51.678;6.074;2023-04-24T07:59:36;8.60;99.90
17619;DHT22;8928;51.678;6.074;2023-04-24T08:02:23;8.60;99.90
17619;DHT22;8928;51.678;6.074;2023-04-24T08:05:12;8.50;99.90
17619;DHT22;8928;51.678;6.074;2023-04-24T08:08:00;8.50;99.90
17619;DHT22;8928;51.678;6.074;2023-04-24T08:10:47;8.60;99.90
17619;DHT22;8928;51.678;6.074;2023-04-24T08:13:34;8.60;99.90
17619;DHT22;8928;51.678;6.074;2023-04-24T08:16:22;8.60;99.90
17619;DHT22;8928;51.678;6.074;2023-04-24T08:19:09;8.60;99.90
17619;DHT22;8928;51.678;6.074;2023-04-24T08:21:56;8.50;99.90
17619;DHT22;8928;51.678;6.074;2023-04-24T08:24:45;8.50;99.90
17619;DHT22;8928;51.678;6.074;2023-04-24T08:27:32;8.40;99.90
17619;DHT22;8928;51.678;6.074;2023-04-24T08:30:19;8.30;99.90
17619;DHT22;8928;51.678;6.074;2023-04-24T08:33:06;8.30;99.90
17619;DHT22;8928;51.678;6.074;2023-04-24T08:35:53;8.30;99.90
17619;DHT22;8928;51.678;6.074;2023-04-24T08:38:40;8.30;99.90
17619;DHT22;8928;51.678;6.074;2023-04-24T08:41:30;8.40;99.90
17619;DHT22;8928;51.678;6.074;2023-04-24T08:44:19;8.40;99.90
17619;DHT22;8928;51.678;6.074;2023-04-24T08:47:07;8.40;99.90
17619;DHT22;8928;51.678;6.074;2023-04-24T08:49:56;8.40;99.90
17619;DHT22;8928;51.678;6.074;2023-04-24T08:52:44;8.30;99.90
17619;DHT22;8928;51.678;6.074;2023-04-24T08:55:32;8.30;99.90
17619;DHT22;8928;51.678;6.074;2023-04-24T08:58:21;8.30;99.90
17619;DHT22;8928;51.678;6.074;2023-04-24T09:01:09;8.40;99.90
17619;DHT22;8928;51.678;6.074;2023-04-24T09:03:56;8.40;99.90
17619;DHT22;8928;51.678;6.074;2023-04-24T09:06:44;8.50;99.90
17619;DHT22;8928;51.678;6.074;2023-04-24T09:09:32;8.50;99.90
17619;DHT22;8928;51.678;6.074;2023-04-24T09:12:20;8.50;99.90
17619;DHT22;8928;51.678;6.074;2023-04-24T09:15:10;8.60;99.90
17619;DHT22;8928;51.678;6.074;2023-04-24T09:17:57;8.70;99.90
17619;DHT22;8928;51.678;6.074;2023-04-24T09:20:57;8.60;99.90
17619;DHT22;8928;51.678;6.074;2023-04-24T09:23:45;8.50;99.90
17619;DHT22;8928;51.678;6.074;2023-04-24T09:26:35;8.50;99.90
17619;DHT22;8928;51.678;6.074;2023-04-24T09:29:22;8.60;99.90
17619;DHT22;8928;51.678;6.074;2023-04-24T09:32:20;8.60;99.90
17619;DHT22;8928;51.678;6.074;2023-04-24T09:35:10;8.70;99.90
17619;DHT22;8928;51.678;6.074;2023-04-24T09:37:58;8.60;99.90
17619;DHT22;8928;51.678;6.074;2023-04-24T09:40:45;8.70;99.90
17619;DHT22;8928;51.678;6.074;2023-04-24T09:43:32;8.70;99.90
17619;DHT22;8928;51.678;6.074;2023-04-24T09:46:19;8.70;99.90
17619;DHT22;8928;51.678;6.074;2023-04-24T09:49:13;8.70;99.90
17619;DHT22;8928;51.678;6.074;2023-04-24T09:52:05;8.80;99.90
17619;DHT22;8928;51.678;6.074;2023-04-24T09:54:53;8.80;99.90
17619;DHT22;8928;51.678;6.074;2023-04-24T09:57:50;8.70;99.90
17619;DHT22;8928;51.678;6.074;2023-04-24T10:00:37;8.70;99.90
17619;DHT22;8928;51.678;6.074;2023-04-24T10:03:26;8.80;99.90
17619;DHT22;8928;51.678;6.074;2023-04-24T10:06:15;8.80;99.90
17619;DHT22;8928;51.678;6.074;2023-04-24T10:09:02;8.90;99.90
17619;DHT22;8928;51.678;6.074;2023-04-24T10:11:51;9.10;99.90
17619;DHT22;8928;51.678;6.074;2023-04-24T10:14:39;9.30;99.90
17619;DHT22;8928;51.678;6.074;2023-04-24T10:17:27;9.60;99.90
17619;DHT22;8928;51.678;6.074;2023-04-24T10:20:15;9.60;99.90
17619;DHT22;8928;51.678;6.074;2023-04-24T10:23:04;9.70;99.90
17619;DHT22;8928;51.678;6.074;2023-04-24T10:25:52;9.80;99.90
17619;DHT22;8928;51.678;6.074;2023-04-24T10:28:41;10.00;99.90
17619;DHT22;8928;51.678;6.074;2023-04-24T10:31:31;10.20;99.90
17619;DHT22;8928;51.678;6.074;2023-04-24T10:34:20;10.10;99.90
17619;DHT22;8928;51.678;6.074;2023-04-24T10:37:08;9.80;99.90
17619;DHT22;8928;51.678;6.074;2023-04-24T10:39:57;9.80;99.90
17619;DHT22;8928;51.678;6.074;2023-04-24T10:42:47;9.90;99.90
17619;DHT22;8928;51.678;6.074;2023-04-24T10:45:35;9.60;99.90
17619;DHT22;8928;51.678;6.074;2023-04-24T10:48:26;9.50;99.90
17619;DHT22;8928;51.678;6.074;2023-04-24T10:51:14;9.50;99.90
17619;DHT22;8928;51.678;6.074;2023-04-24T10:54:22;9.40;99.90
17619;DHT22;8928;51.678;6.074;2023-04-24T10:57:29;9.40;99.90
17619;DHT22;8928;51.678;6.074;2023-04-24T11:00:19;9.50;99.90
17619;DHT22;8928;51.678;6.074;2023-04-24T11:03:22;9.70;99.90
17619;DHT22;8928;51.678;6.074;2023-04-24T11:06:10;10.20;99.90
17619;DHT22;8928;51.678;6.074;2023-04-24T11:09:03;10.10;99.90
17619;DHT22;8928;51.678;6.074;2023-04-24T11:12:02;9.90;99.90
17619;DHT22;8928;51.678;6.074;2023-04-24T11:15:01;9.80;99.90
17619;DHT22;8928;51.678;6.074;2023-04-24T11:17:49;9.80;99.90
17619;DHT22;8928;51.678;6.074;2023-04-24T11:20:36;9.70;99.90
17619;DHT22;8928;51.678;6.074;2023-04-24T11:23:35;9.80;99.90
17619;DHT22;8928;51.678;6.074;2023-04-24T11:26:23;10.00;99.90
17619;DHT22;8928;51.678;6.074;2023-04-24T11:29:16;10.20;99.90
17619;DHT22;8928;51.678;6.074;2023-04-24T11:32:16;10.40;99.90
17619;DHT22;8928;51.678;6.074;2023-04-24T11:35:06;11.00;99.90
17619;DHT22;8928;51.678;6.074;2023-04-24T11:37:54;11.70;99.90
17619;DHT22;8928;51.678;6.074;2023-04-24T11:40:41;12.20;99.90
17619;DHT22;8928;51.678;6.074;2023-04-24T11:43:30;12.00;99.90
17619;DHT22;8928;51.678;6.074;2023-04-24T11:46:17;11.60;99.90
17619;DHT22;8928;51.678;6.074;2023-04-24T11:49:05;11.20;99.90
17619;DHT22;8928;51.678;6.074;2023-04-24T11:51:55;10.50;99.90
17619;DHT22;8928;51.678;6.074;2023-04-24T11:54:47;10.30;99.90
17619;DHT22;8928;51.678;6.074;2023-04-24T11:57:34;10.20;99.90
17619;DHT22;8928;51.678;6.074;2023-04-24T12:00:24;10.10;99.90
17619;DHT22;8928;51.678;6.074;2023-04-24T12:03:12;9.90;99.90
17619;DHT22;8928;51.678;6.074;2023-04-24T12:06:11;9.80;99.90
17619;DHT22;8928;51.678;6.074;2023-04-24T12:08:58;9.70;99.90
17619;DHT22;8928;51.678;6.074;2023-04-24T12:11:52;9.60;99.90
17619;DHT22;8928;51.678;6.074;2023-04-24T12:14:44;9.40;99.90
17619;DHT22;8928;51.678;6.074;2023-04-24T12:17:32;9.30;99.90
17619;DHT22;8928;51.678;6.074;2023-04-24T12:20:24;9.20;99.90
17619;DHT22;8928;51.678;6.074;2023-04-24T12:23:13;9.10;99.90
17619;DHT22;8928;51.678;6.074;2023-04-24T12:26:03;9.00;99.90
17619;DHT22;8928;51.678;6.074;2023-04-24T12:28:50;9.00;99.90
17619;DHT22;8928;51.678;6.074;2023-04-24T12:31:37;9.00;99.90
17619;DHT22;8928;51.678;6.074;2023-04-24T12:34:25;8.90;99.90
17619;DHT22;8928;51.678;6.074;2023-04-24T12:37:12;9.00;99.90
17619;DHT22;8928;51.678;6.074;2023-04-24T12:40:04;9.30;99.90
17619;DHT22;8928;51.678;6.074;2023-04-24T12:42:52;9.60;99.90
17619;DHT22;8928;51.678;6.074;2023-04-24T12:45:39;10.00;99.90
17619;DHT22;8928;51.678;6.074;2023-04-24T12:48:26;10.30;99.90
17619;DHT22;8928;51.678;6.074;2023-04-24T12:51:13;10.60;99.90
17619;DHT22;8928;51.678;6.074;2023-04-24T12:54:01;11.10;99.90
17619;DHT22;8928;51.678;6.074;2023-04-24T12:56:49;11.60;99.90
17619;DHT22;8928;51.678;6.074;2023-04-24T12:59:36;11.90;99.90
17619;DHT22;8928;51.678;6.074;2023-04-24T13:02:26;11.60;99.90
17619;DHT22;8928;51.678;6.074;2023-04-24T13:05:13;11.10;99.90
17619;DHT22;8928;51.678;6.074;2023-04-24T13:08:01;10.80;99.90
17619;DHT22;8928;51.678;6.074;2023-04-24T13:10:48;10.60;99.90
17619;DHT22;8928;51.678;6.074;2023-04-24T13:13:38;10.40;99.90
17619;DHT22;8928;51.678;6.074;2023-04-24T13:16:25;10.10;99.90
17619;DHT22;8928;51.678;6.074;2023-04-24T13:19:12;9.60;99.90
17619;DHT22;8928;51.678;6.074;2023-04-24T13:21:59;9.30;99.90
17619;DHT22;8928;51.678;6.074;2023-04-24T13:24:46;9.10;99.90
17619;DHT22;8928;51.678;6.074;2023-04-24T13:27:35;8.90;99.90
17619;DHT22;8928;51.678;6.074;2023-04-24T13:30:23;9.10;99.90
17619;DHT22;8928;51.678;6.074;2023-04-24T13:33:10;10.10;99.90
17619;DHT22;8928;51.678;6.074;2023-04-24T13:35:57;11.40;99.90
17619;DHT22;8928;51.678;6.074;2023-04-24T13:38:44;12.00;99.90
17619;DHT22;8928;51.678;6.074;2023-04-24T13:41:33;12.30;99.90
17619;DHT22;8928;51.678;6.074;2023-04-24T13:44:21;11.60;99.90
17619;DHT22;8928;51.678;6.074;2023-04-24T13:47:09;11.20;99.90
17619;DHT22;8928;51.678;6.074;2023-04-24T13:49:56;11.00;99.90
17619;DHT22;8928;51.678;6.074;2023-04-24T13:52:43;11.20;99.90
17619;DHT22;8928;51.678;6.074;2023-04-24T13:55:30;12.80;99.90
17619;DHT22;8928;51.678;6.074;2023-04-24T13:58:17;14.60;99.90
17619;DHT22;8928;51.678;6.074;2023-04-24T14:01:05;15.50;99.90
17619;DHT22;8928;51.678;6.074;2023-04-24T14:03:54;15.40;99.90
17619;DHT22;8928;51.678;6.074;2023-04-24T14:06:41;14.70;99.90
17619;DHT22;8928;51.678;6.074;2023-04-24T14:09:28;13.90;99.90
17619;DHT22;8928;51.678;6.074;2023-04-24T14:12:16;13.10;99.90
17619;DHT22;8928;51.678;6.074;2023-04-24T14:15:06;12.50;99.90
17619;DHT22;8928;51.678;6.074;2023-04-24T14:17:54;11.60;99.90
17619;DHT22;8928;51.678;6.074;2023-04-24T14:20:42;10.90;99.90
17619;DHT22;8928;51.678;6.074;2023-04-24T14:23:30;10.50;99.90
17619;DHT22;8928;51.678;6.074;2023-04-24T14:26:17;10.20;99.90
17619;DHT22;8928;51.678;6.074;2023-04-24T14:29:04;10.00;99.90
17619;DHT22;8928;51.678;6.074;2023-04-24T14:31:51;9.70;99.90
17619;DHT22;8928;51.678;6.074;2023-04-24T14:34:38;9.50;99.90
17619;DHT22;8928;51.678;6.074;2023-04-24T14:37:27;9.40;99.90
17619;DHT22;8928;51.678;6.074;2023-04-24T14:40:14;9.20;99.90
17619;DHT22;8928;51.678;6.074;2023-04-24T14:43:01;8.60;99.90
17619;DHT22;8928;51.678;6.074;2023-04-24T14:45:48;8.40;99.90
17619;DHT22;8928;51.678;6.074;2023-04-24T14:48:35;8.40;99.90
17619;DHT22;8928;51.678;6.074;2023-04-24T14:51:22;8.70;99.90
17619;DHT22;8928;51.678;6.074;2023-04-24T14:54:11;8.90;99.90
17619;DHT22;8928;51.678;6.074;2023-04-24T14:56:59;9.20;99.90
17619;DHT22;8928;51.678;6.074;2023-04-24T14:59:47;9.20;99.90
17619;DHT22;8928;51.678;6.074;2023-04-24T15:02:34;9.40;99.90
17619;DHT22;8928;51.678;6.074;2023-04-24T15:05:23;9.50;99.90
17619;DHT22;8928;51.678;6.074;2023-04-24T15:08:10;9.50;99.90
17619;DHT22;8928;51.678;6.074;2023-04-24T15:10:58;9.70;99.90
17619;DHT22;8928;51.678;6.074;2023-04-24T15:13:46;9.60;99.90
17619;DHT22;8928;51.678;6.074;2023-04-24T15:16:33;9.80;99.90
17619;DHT22;8928;51.678;6.074;2023-04-24T15:19:20;10.50;99.90
17619;DHT22;8928;51.678;6.074;2023-04-24T15:22:07;10.50;99.90
17619;DHT22;8928;51.678;6.074;2023-04-24T15:24:54;10.40;99.90
17619;DHT22;8928;51.678;6.074;2023-04-24T15:27:44;10.10;99.90
17619;DHT22;8928;51.678;6.074;2023-04-24T15:30:31;9.70;99.90
17619;DHT22;8928;51.678;6.074;2023-04-24T15:33:18;9.40;99.90
17619;DHT22;8928;51.678;6.074;2023-04-24T15:36:06;9.00;99.90
17619;DHT22;8928;51.678;6.074;2023-04-24T15:38:53;8.50;99.90
17619;DHT22;8928;51.678;6.074;2023-04-24T15:41:40;8.20;99.90
17619;DHT22;8928;51.678;6.074;2023-04-24T15:44:29;8.00;99.90
17619;DHT22;8928;51.678;6.074;2023-04-24T15:47:16;8.00;99.90
17619;DHT22;8928;51.678;6.074;2023-04-24T15:50:04;7.80;99.90
17619;DHT22;8928;51.678;6.074;2023-04-24T15:52:51;8.00;99.90
17619;DHT22;8928;51.678;6.074;2023-04-24T15:55:38;8.60;99.90
17619;DHT22;8928;51.678;6.074;2023-04-24T15:58:25;9.70;99.90
17619;DHT22;8928;51.678;6.074;2023-04-24T16:01:13;11.70;99.90
17619;DHT22;8928;51.678;6.074;2023-04-24T16:04:01;13.20;99.90
17619;DHT22;8928;51.678;6.074;2023-04-24T16:06:48;12.80;99.90
17619;DHT22;8928;51.678;6.074;2023-04-24T16:09:35;11.90;99.90
17619;DHT22;8928;51.678;6.074;2023-04-24T16:12:22;11.10;99.90
17619;DHT22;8928;51.678;6.074;2023-04-24T16:15:12;10.70;99.90
17619;DHT22;8928;51.678;6.074;2023-04-24T16:18:00;10.70;99.90
17619;DHT22;8928;51.678;6.074;2023-04-24T16:20:48;10.50;99.90
17619;DHT22;8928;51.678;6.074;2023-04-24T16:23:35;10.60;99.90
17619;DHT22;8928;51.678;6.074;2023-04-24T16:26:22;11.20;99.90
17619;DHT22;8928;51.678;6.074;2023-04-24T16:29:09;12.50;99.90
17619;DHT22;8928;51.678;6.074;2023-04-24T16:31:56;14.00;99.90
17619;DHT22;8928;51.678;6.074;2023-04-24T16:34:45;14.70;99.90
17619;DHT22;8928;51.678;6.074;2023-04-24T16:37:32;13.30;99.90
17619;DHT22;8928;51.678;6.074;2023-04-24T16:40:19;11.70;99.90
17619;DHT22;8928;51.678;6.074;2023-04-24T16:43:06;10.40;99.90
17619;DHT22;8928;51.678;6.074;2023-04-24T16:45:53;9.80;99.90
17619;DHT22;8928;51.678;6.074;2023-04-24T16:48:40;9.70;99.90
17619;DHT22;8928;51.678;6.074;2023-04-24T16:51:28;10.80;99.90
17619;DHT22;8928;51.678;6.074;2023-04-24T16:54:16;12.60;99.90
17619;DHT22;8928;51.678;6.074;2023-04-24T16:57:03;13.50;99.90
17619;DHT22;8928;51.678;6.074;2023-04-24T16:59:52;14.10;99.90
17619;DHT22;8928;51.678;6.074;2023-04-24T17:02:39;15.40;99.90
17619;DHT22;8928;51.678;6.074;2023-04-24T17:05:26;15.50;99.90
17619;DHT22;8928;51.678;6.074;2023-04-24T17:08:14;14.70;99.90
17619;DHT22;8928;51.678;6.074;2023-04-24T17:11:02;14.70;99.90
17619;DHT22;8928;51.678;6.074;2023-04-24T17:13:49;14.80;99.90
17619;DHT22;8928;51.678;6.074;2023-04-24T17:16:37;14.80;99.90
17619;DHT22;8928;51.678;6.074;2023-04-24T17:19:25;14.80;99.90
17619;DHT22;8928;51.678;6.074;2023-04-24T17:22:12;14.00;99.90
17619;DHT22;8928;51.678;6.074;2023-04-24T17:25:00;12.70;99.90
17619;DHT22;8928;51.678;6.074;2023-04-24T17:27:47;11.80;99.90
17619;DHT22;8928;51.678;6.074;2023-04-24T17:30:34;11.00;99.90
17619;DHT22;8928;51.678;6.074;2023-04-24T17:33:21;10.80;99.90
17619;DHT22;8928;51.678;6.074;2023-04-24T17:36:09;10.70;99.90
17619;DHT22;8928;51.678;6.074;2023-04-24T17:38:56;10.70;99.90
17619;DHT22;8928;51.678;6.074;2023-04-24T17:41:44;10.40;99.90
17619;DHT22;8928;51.678;6.074;2023-04-24T17:44:31;10.50;99.90
17619;DHT22;8928;51.678;6.074;2023-04-24T17:47:18;10.40;99.90
17619;DHT22;8928;51.678;6.074;2023-04-24T17:50:07;10.30;99.90
17619;DHT22;8928;51.678;6.074;2023-04-24T17:52:54;9.90;99.90
17619;DHT22;8928;51.678;6.074;2023-04-24T17:55:41;9.70;99.90
17619;DHT22;8928;51.678;6.074;2023-04-24T17:58:30;9.60;99.90
17619;DHT22;8928;51.678;6.074;2023-04-24T18:01:19;9.60;99.90
17619;DHT22;8928;51.678;6.074;2023-04-24T18:04:08;9.60;99.90
17619;DHT22;8928;51.678;6.074;2023-04-24T18:06:55;9.50;99.90
17619;DHT22;8928;51.678;6.074;2023-04-24T18:09:42;9.30;99.90
17619;DHT22;8928;51.678;6.074;2023-04-24T18:12:29;9.20;99.90
17619;DHT22;8928;51.678;6.074;2023-04-24T18:15:18;9.20;99.90